Antelope, KS

10:31 PM CDT on September 15, 2014 (GMT -0500)
South Cottonwood Hillsboro | Change Station
CLOSE
Current Station
Personal Weather Station
Location: Hillsboro, KS
Elevation: 1388 ft
Nearby Weather Stations

Elev 1388 ft 38.30 °N, 97.21 °W | Updated 11 seconds ago

Clear
Clear
62.3 °F
Feels Like 62.3 °F
N
0.0
Wind Variable Wind from ENE
Gusts 11.0 mph

Today
High -- | Low -- °F
--% Chance of Precip.
Yesterday
High -- | Low -- °F
Precip. -- in
7:09 AM 7:35 PM
Waning Gibbous, 49% visible
Pressure 30.23 in
Visibility 10.0 miles
Clouds Mostly Cloudy 3500 ft
Dew Point 54 °F
Humidity 75%
Rainfall 0.01 in
Snow Depth Not available.
UV 0 out of 12
Pollen 7.10 out of 12
Air Quality Not available.
Flu Activity Not available.
METAR KEWK 160315Z AUTO 05007KT 10SM BKN035 17/11 A3023 RMK AO1

More Conditions Fewer Conditions

Pressure 30.23 in
Visibility 10.0 miles
Clouds Mostly Cloudy 3500 ft
Dew Point 54 °F
Humidity 75%
Rainfall 0.01 in
Snow Depth Not available.
UV 0 out of 12
Pollen 7.10 out of 12
Air Quality Not available.
Flu Activity Not available.
METAR KEWK 160315Z AUTO 05007KT 10SM BKN035 17/11 A3023 RMK AO1

More Conditions Fewer Conditions

10-Day Weather Forecast

Almanac

Astronomy

Sep. 15, 2014 Rise Set
Actual Time 7:09 AM CDT 7:35 PM CDT
Civil Twilight 6:42 AM CDT 8:02 PM CDT
Nautical Twilight 6:11 AM CDT 8:33 PM CDT
Astronomical Twilight 5:39 AM CDT 9:05 PM CDT
Moon No Moon Rise 2:06 PM CDT (9/15)
Length of Visible Light 13h 19m
Length of Day
12h 26m
Tomorrow will be 2m 29s shorter.
Waning Gibbous, 49% of the Moon is Illuminated
Today
Waning Gibbous
Sep 24
New
Oct 1
First Quarter
Oct 8
Full
Oct 15
Last Quarter

Today's Extremes

State Highs State Lows

Community

WunderPhotos

Upload Photos

1,753,693 photos uploaded!

Nearby

Snow Depth

Station Depth Elevation
No new snow has been reported.

Earthquake Activity

City Distance Mag. Time & Date
Enid, Oklahoma 139 miles 3.1 8:27 AM CDT
2014-09-15
Cherokee, Oklahoma 136 miles 3.1 4:21 AM CDT
2014-09-15
Enid, Oklahoma 140 miles 3.6 7:01 AM CDT
2014-09-14
Medford, Oklahoma 135 miles 3.4 3:22 AM CDT
2014-09-13
Minimum magnitude displayed is 2.5.

Coastal Water Temperatures

Place Temperature
No Stations Reporting

Nearby Weather Stations